sensor_id;sensor_type;location;lat;lon;timestamp;pressure;altitude;pressure_sealevel;temperature;humidity
51617;BME280;37697;52.588;13.394;2024-03-23T00:57:55;100322.42;;;7.48;100.00
51617;BME280;37697;52.588;13.394;2024-03-23T01:03:21;100312.98;;;7.49;100.00
51617;BME280;37697;52.588;13.394;2024-03-23T01:08:46;100306.91;;;7.48;100.00
51617;BME280;37697;52.588;13.394;2024-03-23T01:14:11;100307.15;;;7.46;100.00
51617;BME280;37697;52.588;13.394;2024-03-23T01:19:36;100297.21;;;7.43;100.00
51617;BME280;37697;52.588;13.394;2024-03-23T01:25:02;100293.56;;;7.41;100.00
51617;BME280;37697;52.588;13.394;2024-03-23T01:30:20;100292.34;;;7.38;100.00
51617;BME280;37697;52.588;13.394;2024-03-23T01:35:45;100280.88;;;7.36;100.00
51617;BME280;37697;52.588;13.394;2024-03-23T01:41:10;100268.72;;;7.35;100.00
51617;BME280;37697;52.588;13.394;2024-03-23T01:46:35;100257.11;;;7.33;100.00
51617;BME280;37697;52.588;13.394;2024-03-23T01:52:02;100236.58;;;7.33;100.00
51617;BME280;37697;52.588;13.394;2024-03-23T01:57:27;100230.79;;;7.32;100.00
51617;BME280;37697;52.588;13.394;2024-03-23T02:02:52;100220.30;;;7.29;100.00
51617;BME280;37697;52.588;13.394;2024-03-23T02:08:18;100219.52;;;7.27;100.00
51617;BME280;37697;52.588;13.394;2024-03-23T02:13:45;100212.68;;;7.25;100.00
51617;BME280;37697;52.588;13.394;2024-03-23T02:19:10;100219.46;;;7.22;100.00
51617;BME280;37697;52.588;13.394;2024-03-23T02:24:35;100220.15;;;7.19;100.00
51617;BME280;37697;52.588;13.394;2024-03-23T02:30:01;100209.98;;;7.18;100.00
51617;BME280;37697;52.588;13.394;2024-03-23T02:35:26;100199.20;;;7.17;100.00
51617;BME280;37697;52.588;13.394;2024-03-23T02:40:51;100190.73;;;7.15;100.00
51617;BME280;37697;52.588;13.394;2024-03-23T02:46:17;100182.09;;;7.15;100.00
51617;BME280;37697;52.588;13.394;2024-03-23T02:51:42;100173.40;;;7.13;100.00
51617;BME280;37697;52.588;13.394;2024-03-23T02:57:07;100167.34;;;7.12;100.00
51617;BME280;37697;52.588;13.394;2024-03-23T03:02:33;100169.24;;;7.09;100.00
51617;BME280;37697;52.588;13.394;2024-03-23T03:07:58;100167.95;;;7.07;100.00
51617;BME280;37697;52.588;13.394;2024-03-23T03:13:23;100162.92;;;7.07;100.00
51617;BME280;37697;52.588;13.394;2024-03-23T03:18:49;100158.77;;;7.01;100.00
51617;BME280;37697;52.588;13.394;2024-03-23T03:24:14;100148.73;;;6.94;100.00
51617;BME280;37697;52.588;13.394;2024-03-23T03:29:39;100138.74;;;6.92;100.00
51617;BME280;37697;52.588;13.394;2024-03-23T03:35:05;100139.45;;;6.91;100.00
51617;BME280;37697;52.588;13.394;2024-03-23T03:40:31;100125.88;;;6.82;100.00
51617;BME280;37697;52.588;13.394;2024-03-23T03:45:55;100126.67;;;6.72;100.00
51617;BME280;37697;52.588;13.394;2024-03-23T03:51:21;100125.47;;;6.67;100.00
51617;BME280;37697;52.588;13.394;2024-03-23T03:56:46;100123.86;;;6.64;100.00
51617;BME280;37697;52.588;13.394;2024-03-23T04:02:12;100118.27;;;6.56;100.00
51617;BME280;37697;52.588;13.394;2024-03-23T04:07:37;100108.66;;;6.49;100.00
51617;BME280;37697;52.588;13.394;2024-03-23T04:13:03;100105.59;;;6.46;100.00
51617;BME280;37697;52.588;13.394;2024-03-23T04:18:28;100114.29;;;6.44;100.00
51617;BME280;37697;52.588;13.394;2024-03-23T04:23:53;100113.03;;;6.44;100.00
51617;BME280;37697;52.588;13.394;2024-03-23T04:29:19;100112.42;;;6.41;100.00
51617;BME280;37697;52.588;13.394;2024-03-23T04:34:44;100104.73;;;6.39;100.00
51617;BME280;37697;52.588;13.394;2024-03-23T04:40:10;100087.35;;;6.42;100.00
51617;BME280;37697;52.588;13.394;2024-03-23T04:45:36;100085.98;;;6.42;100.00
51617;BME280;37697;52.588;13.394;2024-03-23T04:51:01;100080.95;;;6.41;100.00
51617;BME280;37697;52.588;13.394;2024-03-23T04:56:20;100071.56;;;6.35;100.00
51617;BME280;37697;52.588;13.394;2024-03-23T05:01:45;100065.08;;;6.33;100.00
51617;BME280;37697;52.588;13.394;2024-03-23T05:07:03;100053.88;;;6.32;100.00
51617;BME280;37697;52.588;13.394;2024-03-23T05:12:29;100053.41;;;6.31;100.00
51617;BME280;37697;52.588;13.394;2024-03-23T05:17:54;100052.94;;;6.29;100.00
51617;BME280;37697;52.588;13.394;2024-03-23T05:23:19;100041.98;;;6.24;100.00
51617;BME280;37697;52.588;13.394;2024-03-23T05:28:37;100038.46;;;6.23;100.00
51617;BME280;37697;52.588;13.394;2024-03-23T05:34:02;100040.52;;;6.19;100.00
51617;BME280;37697;52.588;13.394;2024-03-23T05:39:27;100039.73;;;6.15;100.00
51617;BME280;37697;52.588;13.394;2024-03-23T05:44:52;100033.63;;;6.14;100.00
51617;BME280;37697;52.588;13.394;2024-03-23T05:49:59;100025.10;;;6.15;100.00
51617;BME280;37697;52.588;13.394;2024-03-23T05:55:24;100012.73;;;6.14;100.00
51617;BME280;37697;52.588;13.394;2024-03-23T06:00:50;100004.21;;;6.14;100.00
51617;BME280;37697;52.588;13.394;2024-03-23T06:06:14;100001.48;;;6.13;100.00
51617;BME280;37697;52.588;13.394;2024-03-23T06:11:40;99991.38;;;6.18;100.00
51617;BME280;37697;52.588;13.394;2024-03-23T06:17:04;99987.99;;;6.22;100.00
51617;BME280;37697;52.588;13.394;2024-03-23T06:22:22;99977.86;;;6.22;100.00
51617;BME280;37697;52.588;13.394;2024-03-23T06:27:40;99969.19;;;6.21;100.00
51617;BME280;37697;52.588;13.394;2024-03-23T06:33:05;99966.83;;;6.26;100.00
51617;BME280;37697;52.588;13.394;2024-03-23T06:38:31;99966.55;;;6.30;100.00
51617;BME280;37697;52.588;13.394;2024-03-23T06:43:56;99968.82;;;6.32;100.00
51617;BME280;37697;52.588;13.394;2024-03-23T06:49:22;99961.30;;;6.35;100.00
51617;BME280;37697;52.588;13.394;2024-03-23T06:54:27;99949.17;;;6.41;100.00
51617;BME280;37697;52.588;13.394;2024-03-23T06:59:52;99945.64;;;6.43;100.00
51617;BME280;37697;52.588;13.394;2024-03-23T07:05:17;99938.17;;;6.42;100.00
51617;BME280;37697;52.588;13.394;2024-03-23T07:10:43;99929.80;;;6.43;100.00
51617;BME280;37697;52.588;13.394;2024-03-23T07:16:08;99929.58;;;6.42;100.00
51617;BME280;37697;52.588;13.394;2024-03-23T07:21:33;99929.61;;;6.44;100.00
51617;BME280;37697;52.588;13.394;2024-03-23T07:26:59;99930.05;;;6.48;100.00
51617;BME280;37697;52.588;13.394;2024-03-23T07:32:14;99926.02;;;6.50;100.00
51617;BME280;37697;52.588;13.394;2024-03-23T07:37:40;99921.73;;;6.58;100.00
51617;BME280;37697;52.588;13.394;2024-03-23T07:43:13;99922.81;;;6.59;100.00
51617;BME280;37697;52.588;13.394;2024-03-23T07:48:38;99922.66;;;6.56;100.00
51617;BME280;37697;52.588;13.394;2024-03-23T07:54:04;99915.98;;;6.53;100.00
51617;BME280;37697;52.588;13.394;2024-03-23T07:59:30;99914.02;;;6.51;100.00
51617;BME280;37697;52.588;13.394;2024-03-23T08:04:55;99909.55;;;6.36;100.00
51617;BME280;37697;52.588;13.394;2024-03-23T08:10:21;99912.13;;;6.23;100.00
51617;BME280;37697;52.588;13.394;2024-03-23T08:15:46;99903.73;;;6.13;100.00
51617;BME280;37697;52.588;13.394;2024-03-23T08:21:12;99895.09;;;6.01;100.00
51617;BME280;37697;52.588;13.394;2024-03-23T08:26:37;99898.52;;;5.95;100.00
51617;BME280;37697;52.588;13.394;2024-03-23T08:32:03;99888.95;;;5.87;100.00
51617;BME280;37697;52.588;13.394;2024-03-23T08:37:28;99887.81;;;5.76;100.00
51617;BME280;37697;52.588;13.394;2024-03-23T08:42:53;99886.99;;;5.62;100.00
51617;BME280;37697;52.588;13.394;2024-03-23T08:48:19;99882.74;;;5.47;100.00
51617;BME280;37697;52.588;13.394;2024-03-23T08:53:45;99886.77;;;5.34;100.00
51617;BME280;37697;52.588;13.394;2024-03-23T08:59:10;99887.84;;;5.25;100.00
51617;BME280;37697;52.588;13.394;2024-03-23T09:04:28;99892.21;;;5.24;100.00
51617;BME280;37697;52.588;13.394;2024-03-23T09:09:54;99893.20;;;5.19;100.00
51617;BME280;37697;52.588;13.394;2024-03-23T09:15:19;99892.91;;;5.14;100.00
51617;BME280;37697;52.588;13.394;2024-03-23T09:20:35;99893.79;;;5.07;100.00
51617;BME280;37697;52.588;13.394;2024-03-23T09:26:05;99901.02;;;4.97;100.00
51617;BME280;37697;52.588;13.394;2024-03-23T09:31:30;99910.48;;;4.96;100.00
51617;BME280;37697;52.588;13.394;2024-03-23T09:36:38;99910.72;;;4.93;100.00
51617;BME280;37697;52.588;13.394;2024-03-23T09:41:58;99909.45;;;4.81;100.00
51617;BME280;37697;52.588;13.394;2024-03-23T09:47:15;99910.16;;;4.82;100.00
51617;BME280;37697;52.588;13.394;2024-03-23T09:52:40;99914.09;;;4.89;100.00
51617;BME280;37697;52.588;13.394;2024-03-23T09:57:48;99918.22;;;4.89;100.00
51617;BME280;37697;52.588;13.394;2024-03-23T10:03:13;99935.83;;;5.00;100.00
51617;BME280;37697;52.588;13.394;2024-03-23T10:08:39;99940.13;;;5.01;100.00
51617;BME280;37697;52.588;13.394;2024-03-23T10:14:05;99950.98;;;4.94;100.00
51617;BME280;37697;52.588;13.394;2024-03-23T10:19:32;99962.63;;;5.07;100.00
51617;BME280;37697;52.588;13.394;2024-03-23T10:24:50;99967.87;;;5.50;100.00
51617;BME280;37697;52.588;13.394;2024-03-23T10:30:17;99965.57;;;5.77;100.00
51617;BME280;37697;52.588;13.394;2024-03-23T10:35:25;99972.30;;;5.86;100.00
51617;BME280;37697;52.588;13.394;2024-03-23T10:40:30;99970.95;;;5.79;100.00
51617;BME280;37697;52.588;13.394;2024-03-23T10:45:55;99971.64;;;5.61;100.00
51617;BME280;37697;52.588;13.394;2024-03-23T10:51:11;99973.92;;;5.45;100.00
51617;BME280;37697;52.588;13.394;2024-03-23T10:56:28;99969.64;;;5.35;100.00
51617;BME280;37697;52.588;13.394;2024-03-23T11:01:56;99961.95;;;5.28;100.00
51617;BME280;37697;52.588;13.394;2024-03-23T11:07:31;99963.84;;;5.30;100.00
51617;BME280;37697;52.588;13.394;2024-03-23T11:12:57;99974.04;;;5.33;100.00
51617;BME280;37697;52.588;13.394;2024-03-23T11:18:22;99975.56;;;5.39;100.00
51617;BME280;37697;52.588;13.394;2024-03-23T11:23:48;99980.11;;;5.43;100.00
51617;BME280;37697;52.588;13.394;2024-03-23T11:29:15;99978.64;;;5.48;100.00
51617;BME280;37697;52.588;13.394;2024-03-23T11:34:40;99974.78;;;5.53;100.00
51617;BME280;37697;52.588;13.394;2024-03-23T11:39:59;99974.29;;;5.58;100.00
51617;BME280;37697;52.588;13.394;2024-03-23T11:45:24;99981.22;;;5.74;100.00
51617;BME280;37697;52.588;13.394;2024-03-23T11:50:51;99989.43;;;5.95;100.00
51617;BME280;37697;52.588;13.394;2024-03-23T11:56:18;99990.33;;;6.10;100.00
51617;BME280;37697;52.588;13.394;2024-03-23T12:01:44;99997.59;;;6.23;100.00
51617;BME280;37697;52.588;13.394;2024-03-23T12:07:13;100000.77;;;6.36;100.00
51617;BME280;37697;52.588;13.394;2024-03-23T12:12:39;100001.85;;;6.33;100.00
51617;BME280;37697;52.588;13.394;2024-03-23T12:18:11;100002.20;;;6.32;100.00
51617;BME280;37697;52.588;13.394;2024-03-23T12:23:38;100001.49;;;6.35;100.00
51617;BME280;37697;52.588;13.394;2024-03-23T12:29:04;99988.35;;;6.32;100.00
51617;BME280;37697;52.588;13.394;2024-03-23T12:34:30;99983.10;;;6.36;100.00
51617;BME280;37697;52.588;13.394;2024-03-23T12:39:55;99983.08;;;6.47;100.00
51617;BME280;37697;52.588;13.394;2024-03-23T12:45:20;99977.63;;;6.69;100.00
51617;BME280;37697;52.588;13.394;2024-03-23T12:50:46;99976.02;;;6.92;100.00
51617;BME280;37697;52.588;13.394;2024-03-23T12:56:13;99977.58;;;6.98;100.00
51617;BME280;37697;52.588;13.394;2024-03-23T13:01:39;99968.67;;;7.07;100.00
51617;BME280;37697;52.588;13.394;2024-03-23T13:07:04;99970.55;;;7.16;100.00
51617;BME280;37697;52.588;13.394;2024-03-23T13:12:29;99969.90;;;7.28;100.00
51617;BME280;37697;52.588;13.394;2024-03-23T13:17:55;99976.09;;;7.35;100.00
51617;BME280;37697;52.588;13.394;2024-03-23T13:23:04;99979.27;;;7.28;100.00
51617;BME280;37697;52.588;13.394;2024-03-23T13:28:30;99972.34;;;7.37;100.00
51617;BME280;37697;52.588;13.394;2024-03-23T13:33:55;99964.04;;;7.60;99.92
51617;BME280;37697;52.588;13.394;2024-03-23T13:39:21;99960.23;;;8.05;100.00
51617;BME280;37697;52.588;13.394;2024-03-23T13:44:46;99952.56;;;8.33;100.00
51617;BME280;37697;52.588;13.394;2024-03-23T13:50:16;99949.96;;;8.34;99.36
51617;BME280;37697;52.588;13.394;2024-03-23T13:55:47;99956.70;;;7.97;98.50
51617;BME280;37697;52.588;13.394;2024-03-23T14:01:16;99961.13;;;8.04;100.00
51617;BME280;37697;52.588;13.394;2024-03-23T14:06:31;99960.26;;;8.16;99.79
51617;BME280;37697;52.588;13.394;2024-03-23T14:11:56;99962.33;;;8.09;99.50
51617;BME280;37697;52.588;13.394;2024-03-23T14:17:14;99968.94;;;7.91;98.73
51617;BME280;37697;52.588;13.394;2024-03-23T14:22:39;99987.15;;;7.61;98.69
51617;BME280;37697;52.588;13.394;2024-03-23T14:28:05;99995.28;;;7.41;99.26
51617;BME280;37697;52.588;13.394;2024-03-23T14:33:30;100001.70;;;7.24;99.79
51617;BME280;37697;52.588;13.394;2024-03-23T14:38:56;100028.85;;;6.95;99.06
51617;BME280;37697;52.588;13.394;2024-03-23T14:44:21;100036.39;;;6.43;97.55
51617;BME280;37697;52.588;13.394;2024-03-23T14:49:46;100030.34;;;5.99;98.00
51617;BME280;37697;52.588;13.394;2024-03-23T14:55:12;100006.88;;;5.77;98.52
51617;BME280;37697;52.588;13.394;2024-03-23T15:00:37;100029.11;;;5.73;99.75
51617;BME280;37697;52.588;13.394;2024-03-23T15:06:03;100042.95;;;5.59;99.57
51617;BME280;37697;52.588;13.394;2024-03-23T15:11:28;100037.67;;;5.75;100.00
51617;BME280;37697;52.588;13.394;2024-03-23T15:16:46;100016.02;;;6.04;100.00
51617;BME280;37697;52.588;13.394;2024-03-23T15:22:12;100004.81;;;6.19;100.00
51617;BME280;37697;52.588;13.394;2024-03-23T15:27:37;100002.42;;;6.31;100.00
51617;BME280;37697;52.588;13.394;2024-03-23T15:39:02;99990.66;;;6.59;100.00
51617;BME280;37697;52.588;13.394;2024-03-23T15:44:28;99982.39;;;6.65;100.00
51617;BME280;37697;52.588;13.394;2024-03-23T15:49:53;99973.64;;;6.72;100.00
51617;BME280;37697;52.588;13.394;2024-03-23T15:55:13;99964.02;;;6.75;100.00
51617;BME280;37697;52.588;13.394;2024-03-23T16:00:38;99959.55;;;6.88;100.00
51617;BME280;37697;52.588;13.394;2024-03-23T16:06:05;99945.64;;;6.92;100.00
51617;BME280;37697;52.588;13.394;2024-03-23T16:11:31;99942.44;;;6.93;100.00
51617;BME280;37697;52.588;13.394;2024-03-23T16:16:56;99938.77;;;6.98;100.00
51617;BME280;37697;52.588;13.394;2024-03-23T16:22:22;99934.68;;;6.95;99.90
51617;BME280;37697;52.588;13.394;2024-03-23T16:27:47;99930.86;;;6.85;99.83
51617;BME280;37697;52.588;13.394;2024-03-23T16:33:12;99923.96;;;6.74;99.42
51617;BME280;37697;52.588;13.394;2024-03-23T16:38:39;99929.10;;;6.64;98.59
51617;BME280;37697;52.588;13.394;2024-03-23T16:44:04;99930.34;;;6.51;98.35
51617;BME280;37697;52.588;13.394;2024-03-23T16:49:22;99927.44;;;6.39;98.18
51617;BME280;37697;52.588;13.394;2024-03-23T16:54:40;99931.09;;;6.28;98.34
51617;BME280;37697;52.588;13.394;2024-03-23T17:00:08;99931.23;;;6.18;98.61
51617;BME280;37697;52.588;13.394;2024-03-23T17:05:40;99927.91;;;6.07;98.58
51617;BME280;37697;52.588;13.394;2024-03-23T17:10:59;99928.52;;;5.97;98.52
51617;BME280;37697;52.588;13.394;2024-03-23T17:16:25;99931.45;;;5.87;98.84
51617;BME280;37697;52.588;13.394;2024-03-23T17:21:50;99930.64;;;5.78;98.78
51617;BME280;37697;52.588;13.394;2024-03-23T17:27:15;99931.25;;;5.67;98.73
51617;BME280;37697;52.588;13.394;2024-03-23T17:32:40;99938.83;;;5.58;99.04
51617;BME280;37697;52.588;13.394;2024-03-23T17:38:05;99944.11;;;5.49;99.41
51617;BME280;37697;52.588;13.394;2024-03-23T17:43:30;99961.71;;;5.42;99.56
51617;BME280;37697;52.588;13.394;2024-03-23T17:48:56;99962.17;;;5.33;99.43
51617;BME280;37697;52.588;13.394;2024-03-23T17:54:21;99968.30;;;5.26;99.84
51617;BME280;37697;52.588;13.394;2024-03-23T17:59:39;99974.91;;;5.20;99.90
51617;BME280;37697;52.588;13.394;2024-03-23T18:05:05;99982.88;;;5.14;99.89
51617;BME280;37697;52.588;13.394;2024-03-23T18:10:31;99999.65;;;5.13;100.00
51617;BME280;37697;52.588;13.394;2024-03-23T18:15:59;100008.57;;;5.16;100.00
51617;BME280;37697;52.588;13.394;2024-03-23T18:21:24;100021.90;;;5.21;100.00
51617;BME280;37697;52.588;13.394;2024-03-23T18:26:50;100043.00;;;5.19;100.00
51617;BME280;37697;52.588;13.394;2024-03-23T18:32:16;100056.11;;;5.11;99.97
51617;BME280;37697;52.588;13.394;2024-03-23T18:37:41;100054.09;;;5.02;100.00
51617;BME280;37697;52.588;13.394;2024-03-23T18:42:59;100049.92;;;4.95;100.00
51617;BME280;37697;52.588;13.394;2024-03-23T18:48:24;100051.80;;;4.92;100.00
51617;BME280;37697;52.588;13.394;2024-03-23T18:53:48;100045.36;;;4.83;99.91
51617;BME280;37697;52.588;13.394;2024-03-23T18:59:06;100047.88;;;4.73;99.35
51617;BME280;37697;52.588;13.394;2024-03-23T19:04:31;100047.30;;;4.65;99.74
51617;BME280;37697;52.588;13.394;2024-03-23T19:09:48;100053.63;;;4.57;99.33
51617;BME280;37697;52.588;13.394;2024-03-23T19:15:15;100046.75;;;4.44;99.33
51617;BME280;37697;52.588;13.394;2024-03-23T19:20:33;100048.27;;;4.34;99.39
51617;BME280;37697;52.588;13.394;2024-03-23T19:26:00;100050.59;;;4.23;99.59
51617;BME280;37697;52.588;13.394;2024-03-23T19:31:25;100045.73;;;4.12;99.94
51617;BME280;37697;52.588;13.394;2024-03-23T19:36:51;100041.17;;;4.03;100.00
51617;BME280;37697;52.588;13.394;2024-03-23T19:42:16;100030.55;;;4.03;100.00
51617;BME280;37697;52.588;13.394;2024-03-23T19:47:41;100027.11;;;4.04;100.00
51617;BME280;37697;52.588;13.394;2024-03-23T19:53:14;100027.27;;;4.04;100.00
51617;BME280;37697;52.588;13.394;2024-03-23T19:58:39;100027.16;;;4.01;100.00
51617;BME280;37697;52.588;13.394;2024-03-23T20:03:57;100029.90;;;3.95;100.00
51617;BME280;37697;52.588;13.394;2024-03-23T20:09:22;100031.40;;;3.89;100.00
51617;BME280;37697;52.588;13.394;2024-03-23T20:14:47;100030.10;;;3.84;100.00
51617;BME280;37697;52.588;13.394;2024-03-23T20:20:13;100032.45;;;3.79;100.00
51617;BME280;37697;52.588;13.394;2024-03-23T20:25:38;100035.57;;;3.75;100.00
51617;BME280;37697;52.588;13.394;2024-03-23T20:31:04;100036.88;;;3.69;100.00
51617;BME280;37697;52.588;13.394;2024-03-23T20:36:29;100039.50;;;3.60;100.00
51617;BME280;37697;52.588;13.394;2024-03-23T20:41:55;100035.04;;;3.52;100.00
51617;BME280;37697;52.588;13.394;2024-03-23T20:47:20;100034.83;;;3.43;100.00
51617;BME280;37697;52.588;13.394;2024-03-23T20:52:45;100038.33;;;3.38;100.00
51617;BME280;37697;52.588;13.394;2024-03-23T20:58:11;100043.16;;;3.32;100.00
51617;BME280;37697;52.588;13.394;2024-03-23T21:03:35;100036.58;;;3.23;100.00
51617;BME280;37697;52.588;13.394;2024-03-23T21:09:00;100037.05;;;3.15;100.00
51617;BME280;37697;52.588;13.394;2024-03-23T21:14:25;100031.57;;;3.14;100.00
51617;BME280;37697;52.588;13.394;2024-03-23T21:19:51;100031.66;;;3.12;100.00
51617;BME280;37697;52.588;13.394;2024-03-23T21:25:16;100026.45;;;3.10;100.00
51617;BME280;37697;52.588;13.394;2024-03-23T21:30:41;100024.80;;;3.06;100.00
51617;BME280;37697;52.588;13.394;2024-03-23T21:36:07;100025.78;;;3.01;100.00
51617;BME280;37697;52.588;13.394;2024-03-23T21:41:33;100027.52;;;3.00;100.00
51617;BME280;37697;52.588;13.394;2024-03-23T21:46:58;100021.04;;;3.02;100.00
51617;BME280;37697;52.588;13.394;2024-03-23T21:52:23;100018.55;;;3.01;100.00
51617;BME280;37697;52.588;13.394;2024-03-23T21:57:49;100011.73;;;2.98;100.00
51617;BME280;37697;52.588;13.394;2024-03-23T22:03:15;100002.38;;;2.96;100.00
51617;BME280;37697;52.588;13.394;2024-03-23T22:08:40;99996.50;;;2.94;100.00
51617;BME280;37697;52.588;13.394;2024-03-23T22:14:05;100002.60;;;2.91;100.00
51617;BME280;37697;52.588;13.394;2024-03-23T22:19:31;99998.50;;;2.88;100.00
51617;BME280;37697;52.588;13.394;2024-03-23T22:24:56;99989.59;;;2.85;100.00
51617;BME280;37697;52.588;13.394;2024-03-23T22:30:13;99987.62;;;2.81;100.00
51617;BME280;37697;52.588;13.394;2024-03-23T22:35:45;99986.31;;;2.76;100.00
51617;BME280;37697;52.588;13.394;2024-03-23T22:41:10;99978.95;;;2.71;100.00
51617;BME280;37697;52.588;13.394;2024-03-23T22:46:29;99973.57;;;2.68;100.00
51617;BME280;37697;52.588;13.394;2024-03-23T22:51:54;99978.55;;;2.63;100.00
51617;BME280;37697;52.588;13.394;2024-03-23T22:57:03;99976.65;;;2.59;100.00
51617;BME280;37697;52.588;13.394;2024-03-23T23:02:08;99974.79;;;2.53;100.00
51617;BME280;37697;52.588;13.394;2024-03-23T23:07:33;99971.67;;;2.49;100.00
51617;BME280;37697;52.588;13.394;2024-03-23T23:12:58;99969.40;;;2.45;100.00
51617;BME280;37697;52.588;13.394;2024-03-23T23:18:24;99963.73;;;2.43;100.00
51617;BME280;37697;52.588;13.394;2024-03-23T23:23:50;99957.63;;;2.43;100.00
51617;BME280;37697;52.588;13.394;2024-03-23T23:29:15;99958.56;;;2.44;100.00
51617;BME280;37697;52.588;13.394;2024-03-23T23:34:40;99954.81;;;2.43;100.00
51617;BME280;37697;52.588;13.394;2024-03-23T23:40:07;99947.70;;;2.46;100.00
51617;BME280;37697;52.588;13.394;2024-03-23T23:45:33;99948.86;;;2.51;100.00
51617;BME280;37697;52.588;13.394;2024-03-23T23:50:58;99941.63;;;2.53;100.00
51617;BME280;37697;52.588;13.394;2024-03-23T23:56:23;99933.73;;;2.53;100.00
